Time;durP1;ratioP1;P1;durP2;ratioP2;P2;SDS_P1;SDS_P2;PMS_P1;PMS_P2;Temp;Humidity;BMP_temperature;BMP_pressure;BME280_temperature;BME280_humidity;BME280_pressure;Samples;Min_cycle;Max_cycle;Signal;HPM_P1;HPM_P2
2022/08/31 00:05:28;;;;;;;1.50;0.38;;;18.20;82.00;;;;;;5031547;28;20049;-67
2022/08/31 00:07:54;;;;;;;2.53;0.38;;;18.20;82.00;;;;;;5031558;28;20037;-68
2022/08/31 00:10:20;;;;;;;1.85;0.30;;;18.20;81.80;;;;;;5031798;28;20038;-68
2022/08/31 00:12:47;;;;;;;3.95;0.50;;;18.20;81.50;;;;;;5031769;28;20084;-68
2022/08/31 00:15:20;;;;;;;5.53;0.50;;;18.20;81.70;;;;;;5031508;28;20120;-68
2022/08/31 00:17:45;;;;;;;2.90;0.43;;;18.10;81.70;;;;;;5031717;28;20188;-68
2022/08/31 00:20:13;;;;;;;1.17;0.30;;;18.10;81.70;;;;;;5031429;28;20541;-68
2022/08/31 00:22:39;;;;;;;1.08;0.28;;;18.10;81.50;;;;;;5031495;28;20038;-68
2022/08/31 00:25:05;;;;;;;3.42;0.45;;;18.10;81.20;;;;;;5031430;28;20060;-68
2022/08/31 00:27:31;;;;;;;1.85;0.50;;;18.00;80.80;;;;;;5031478;28;20053;-68
2022/08/31 00:29:57;;;;;;;1.73;0.30;;;18.00;80.70;;;;;;5035194;28;20041;-68
2022/08/31 00:32:22;;;;;;;1.77;0.38;;;18.00;80.50;;;;;;5035120;28;20133;-68
2022/08/31 00:34:48;;;;;;;0.40;0.30;;;18.00;80.20;;;;;;5035066;28;20073;-68
2022/08/31 00:37:13;;;;;;;2.53;0.52;;;17.90;79.60;;;;;;5034886;28;20103;-68
2022/08/31 00:39:39;;;;;;;2.28;0.40;;;17.90;79.20;;;;;;5036491;28;20037;-68
2022/08/31 00:42:06;;;;;;;1.05;0.30;;;17.90;79.10;;;;;;5018481;28;20128;-68
2022/08/31 00:44:32;;;;;;;0.40;0.30;;;17.80;78.90;;;;;;5034908;28;20494;-68
2022/08/31 00:46:58;;;;;;;2.03;0.30;;;17.80;78.70;;;;;;5034787;28;20050;-68
2022/08/31 00:49:28;;;;;;;1.33;0.40;;;17.80;78.40;;;;;;5034723;28;20128;-68
2022/08/31 00:52:02;;;;;;;0.95;0.40;;;17.80;78.30;;;;;;5034787;28;20413;-68
2022/08/31 00:54:40;;;;;;;1.02;0.30;;;17.80;77.20;;;;;;5034639;28;20421;-68
2022/08/31 00:57:07;;;;;;;1.60;0.40;;;17.80;77.20;;;;;;5034729;28;20056;-68
2022/08/31 00:59:32;;;;;;;2.13;0.43;;;17.70;77.10;;;;;;5034814;28;20045;-68
2022/08/31 01:01:58;;;;;;;1.02;0.30;;;17.80;76.80;;;;;;5034532;28;20482;-68
2022/08/31 01:04:24;;;;;;;1.02;0.50;;;17.70;76.60;;;;;;5034572;28;20054;-68
2022/08/31 01:06:51;;;;;;;0.60;0.40;;;17.70;76.50;;;;;;5034395;28;20077;-68
2022/08/31 01:09:20;;;;;;;2.10;0.40;;;17.60;76.30;;;;;;5034378;28;20038;-68
2022/08/31 01:11:46;;;;;;;3.03;0.30;;;17.60;76.10;;;;;;5034403;28;20083;-68
2022/08/31 01:14:13;;;;;;;2.13;0.30;;;17.60;76.30;;;;;;5034369;28;20041;-68
2022/08/31 01:16:43;;;;;;;0.63;0.22;;;17.50;76.30;;;;;;5034562;28;20041;-68
2022/08/31 01:19:21;;;;;;;3.40;0.50;;;17.50;76.30;;;;;;5034211;28;20556;-68
2022/08/31 01:21:56;;;;;;;3.00;0.40;;;17.40;76.10;;;;;;5034552;28;20052;-68
2022/08/31 01:24:23;;;;;;;1.88;0.30;;;17.40;76.10;;;;;;5034201;28;20191;-68
2022/08/31 01:26:51;;;;;;;0.93;0.30;;;17.40;76.30;;;;;;5034006;28;20045;-68
2022/08/31 01:29:16;;;;;;;0.90;0.20;;;17.40;76.30;;;;;;5033977;28;20041;-68
2022/08/31 01:31:45;;;;;;;1.55;0.30;;;17.30;76.10;;;;;;5034277;28;20120;-67
2022/08/31 01:34:12;;;;;;;1.98;0.40;;;17.30;76.20;;;;;;5034252;28;20068;-67
2022/08/31 01:36:40;;;;;;;2.25;0.20;;;17.20;76.10;;;;;;5034153;28;20413;-68
2022/08/31 01:39:07;;;;;;;2.28;0.30;;;17.20;76.10;;;;;;5033673;28;20560;-68
2022/08/31 01:41:34;;;;;;;0.85;0.32;;;17.20;75.90;;;;;;5017077;28;20053;-68
2022/08/31 01:44:00;;;;;;;1.27;0.43;;;17.20;76.20;;;;;;5033816;28;20509;-68
2022/08/31 01:46:25;;;;;;;1.05;0.30;;;17.10;76.10;;;;;;5033866;28;20076;-68
2022/08/31 01:48:51;;;;;;;1.35;0.40;;;17.10;76.10;;;;;;5033686;28;20490;-68
2022/08/31 01:51:19;;;;;;;0.57;0.20;;;17.00;76.00;;;;;;5033880;28;20037;-68
2022/08/31 01:53:47;;;;;;;0.68;0.20;;;17.00;76.10;;;;;;5033612;28;20044;-68
2022/08/31 01:56:17;;;;;;;1.20;0.15;;;17.00;76.10;;;;;;5033556;28;20052;-68
2022/08/31 01:58:43;;;;;;;0.70;0.22;;;16.90;76.10;;;;;;5033706;28;20102;-68
2022/08/31 02:01:09;;;;;;;1.80;0.25;;;16.80;76.30;;;;;;5033530;28;20441;-68
2022/08/31 02:03:35;;;;;;;1.65;0.20;;;16.80;76.30;;;;;;5033444;28;20092;-68
2022/08/31 02:06:11;;;;;;;1.55;0.30;;;16.80;76.60;;;;;;5033254;28;20053;-68
2022/08/31 02:08:37;;;;;;;1.08;0.20;;;16.80;77.20;;;;;;5033351;28;20116;-68
2022/08/31 02:11:04;;;;;;;0.32;0.20;;;16.70;76.60;;;;;;5033308;28;20033;-68
2022/08/31 02:13:31;;;;;;;1.17;0.45;;;16.70;76.70;;;;;;5033478;28;20045;-67
2022/08/31 02:15:57;;;;;;;1.15;0.30;;;16.60;76.70;;;;;;5033437;28;20049;-68
2022/08/31 02:18:22;;;;;;;0.93;0.30;;;16.60;77.00;;;;;;5033076;28;20048;-69
2022/08/31 02:20:48;;;;;;;2.50;0.30;;;16.50;77.30;;;;;;5033317;28;20080;-68
2022/08/31 02:23:14;;;;;;;3.58;0.35;;;16.50;77.80;;;;;;5033058;28;20124;-68
2022/08/31 02:25:39;;;;;;;2.35;0.30;;;16.40;78.20;;;;;;5032892;28;20046;-68
2022/08/31 02:28:05;;;;;;;2.35;0.30;;;16.40;78.70;;;;;;5032899;28;20072;-68
2022/08/31 02:30:31;;;;;;;0.25;0.15;;;16.30;79.10;;;;;;5032930;28;20041;-68
2022/08/31 02:32:57;;;;;;;0.77;0.30;;;16.30;79.60;;;;;;5034127;28;20045;-68
2022/08/31 02:35:22;;;;;;;0.85;0.40;;;16.30;80.00;;;;;;5033091;28;20041;-68
2022/08/31 02:37:48;;;;;;;1.38;0.30;;;16.20;80.50;;;;;;5032526;28;20037;-68
2022/08/31 02:40:14;;;;;;;1.48;0.22;;;16.20;81.00;;;;;;5032750;28;20453;-68
2022/08/31 02:42:40;;;;;;;1.67;0.40;;;16.10;81.80;;;;;;5032717;28;20044;-68
2022/08/31 02:45:06;;;;;;;2.67;0.30;;;16.10;82.30;;;;;;5032896;28;20033;-68
2022/08/31 02:47:32;;;;;;;3.08;0.20;;;16.00;82.70;;;;;;5032402;28;20573;-68
2022/08/31 02:50:01;;;;;;;0.40;0.20;;;16.00;83.10;;;;;;5032548;28;20509;-68
2022/08/31 02:52:27;;;;;;;0.57;0.30;;;15.90;83.60;;;;;;5032921;28;20045;-68
2022/08/31 02:54:52;;;;;;;2.15;0.30;;;15.90;84.30;;;;;;5032451;28;20092;-68
2022/08/31 02:57:18;;;;;;;2.03;0.30;;;15.80;85.00;;;;;;5032650;28;20084;-67
2022/08/31 02:59:43;;;;;;;1.48;0.38;;;15.80;85.80;;;;;;5032309;28;20461;-68
2022/08/31 03:02:09;;;;;;;0.47;0.20;;;15.70;86.60;;;;;;5032349;28;20046;-68
2022/08/31 03:04:35;;;;;;;4.22;0.40;;;15.70;87.50;;;;;;5032303;28;20048;-68
2022/08/31 03:07:01;;;;;;;1.63;0.40;;;15.60;88.50;;;;;;5032292;28;20056;-68
2022/08/31 03:09:26;;;;;;;1.95;0.30;;;15.60;89.30;;;;;;5032181;28;20387;-68
2022/08/31 03:11:52;;;;;;;3.65;0.50;;;15.50;90.00;;;;;;5032161;28;20041;-68
2022/08/31 03:14:17;;;;;;;0.70;0.28;;;15.50;90.60;;;;;;5032411;28;20132;-68
2022/08/31 03:16:44;;;;;;;0.77;0.30;;;15.50;91.00;;;;;;5032110;28;20406;-68
2022/08/31 03:19:10;;;;;;;1.30;0.30;;;15.40;91.40;;;;;;5031969;28;20059;-68
2022/08/31 03:21:36;;;;;;;2.05;0.20;;;15.40;91.90;;;;;;5032050;28;20124;-68
2022/08/31 03:24:01;;;;;;;1.48;0.38;;;15.40;92.40;;;;;;5015600;28;20037;-68
2022/08/31 03:26:27;;;;;;;2.15;0.20;;;15.40;92.70;;;;;;5032089;28;20037;-68
2022/08/31 03:28:54;;;;;;;1.05;0.30;;;15.40;93.00;;;;;;5031905;28;20041;-67
2022/08/31 03:31:21;;;;;;;0.82;0.30;;;15.30;93.30;;;;;;5031928;28;20046;-67
2022/08/31 03:33:47;;;;;;;3.72;0.35;;;15.30;93.70;;;;;;5031936;28;20046;-67
2022/08/31 03:36:14;;;;;;;1.20;0.28;;;15.20;94.20;;;;;;5032210;28;20048;-67
2022/08/31 03:38:40;;;;;;;0.95;0.30;;;15.20;94.70;;;;;;5031936;28;20045;-68
2022/08/31 03:41:06;;;;;;;1.40;0.30;;;15.10;95.00;;;;;;5032120;28;20092;-68
2022/08/31 03:43:32;;;;;;;1.80;0.20;;;15.10;95.60;;;;;;5031803;28;20445;-67
2022/08/31 03:45:57;;;;;;;3.72;0.50;;;15.10;96.00;;;;;;5031662;28;20064;-67
2022/08/31 03:48:23;;;;;;;0.82;0.20;;;15.00;96.40;;;;;;5031685;28;20041;-68
2022/08/31 03:50:48;;;;;;;2.50;0.28;;;15.00;96.90;;;;;;5032005;28;20041;-67
2022/08/31 03:53:14;;;;;;;1.42;0.30;;;15.00;97.20;;;;;;5031734;28;20075;-67
2022/08/31 03:55:41;;;;;;;0.75;0.30;;;14.90;97.70;;;;;;5031659;28;20167;-67
2022/08/31 03:58:08;;;;;;;1.40;0.30;;;14.90;98.30;;;;;;5031558;28;20503;-67
2022/08/31 04:00:35;;;;;;;1.60;0.30;;;14.80;98.80;;;;;;5031949;28;20045;-67
2022/08/31 04:03:01;;;;;;;1.85;0.30;;;14.80;99.20;;;;;;5032173;28;20123;-67
2022/08/31 04:05:32;;;;;;;1.13;0.30;;;14.80;99.50;;;;;;5035569;28;20095;-67
2022/08/31 04:07:58;;;;;;;1.55;0.30;;;14.80;99.70;;;;;;5035807;28;20136;-68
2022/08/31 04:10:24;;;;;;;1.27;0.40;;;14.80;99.90;;;;;;5035466;28;20136;-67
2022/08/31 04:12:49;;;;;;;1.17;0.45;;;14.70;99.90;;;;;;5035733;28;20052;-67
2022/08/31 04:15:16;;;;;;;1.20;0.30;;;14.70;99.90;;;;;;5035746;28;20052;-67
2022/08/31 04:17:44;;;;;;;0.60;0.28;;;14.70;99.90;;;;;;5035333;28;20041;-68
2022/08/31 04:20:10;;;;;;;1.38;0.40;;;14.70;99.90;;;;;;5035393;28;20073;-67
2022/08/31 04:22:35;;;;;;;2.80;0.40;;;14.60;99.90;;;;;;5035590;28;20069;-67
2022/08/31 04:25:01;;;;;;;0.77;0.30;;;14.60;99.90;;;;;;5035318;28;20056;-67
2022/08/31 04:27:26;;;;;;;1.95;0.30;;;14.60;99.90;;;;;;5035076;28;20041;-68
2022/08/31 04:29:52;;;;;;;2.92;0.20;;;14.50;99.90;;;;;;5035207;28;20041;-67
2022/08/31 04:32:18;;;;;;;0.85;0.30;;;14.50;99.90;;;;;;5035140;28;20042;-68
2022/08/31 04:34:44;;;;;;;1.10;0.50;;;14.50;99.90;;;;;;5035115;28;20073;-68
2022/08/31 04:37:13;;;;;;;0.90;0.40;;;14.40;99.90;;;;;;5034896;28;20084;-67
2022/08/31 04:39:39;;;;;;;1.23;0.40;;;14.40;99.90;;;;;;5034960;28;20506;-68
2022/08/31 04:42:05;;;;;;;2.17;0.40;;;14.40;99.90;;;;;;5035227;28;20045;-68
2022/08/31 04:44:31;;;;;;;2.10;0.30;;;14.40;99.90;;;;;;5035158;28;20099;-67
2022/08/31 04:46:57;;;;;;;1.63;0.38;;;14.40;99.90;;;;;;5035406;28;20052;-67
2022/08/31 04:49:23;;;;;;;1.85;0.20;;;14.40;99.90;;;;;;5034713;28;20037;-67
2022/08/31 04:51:48;;;;;;;1.33;0.50;;;14.30;99.90;;;;;;5034768;28;20076;-67
2022/08/31 04:54:14;;;;;;;1.08;0.47;;;14.30;99.90;;;;;;5018240;28;20045;-67
2022/08/31 04:56:42;;;;;;;1.63;0.50;;;14.30;99.90;;;;;;5034749;28;20041;-68
2022/08/31 04:59:10;;;;;;;1.30;0.38;;;14.30;99.90;;;;;;5018325;28;20049;-68
2022/08/31 05:01:40;;;;;;;1.67;0.40;;;14.30;99.90;;;;;;5034891;28;20099;-67
2022/08/31 05:04:07;;;;;;;1.10;0.40;;;14.30;99.90;;;;;;5035838;28;20033;-67
2022/08/31 05:06:36;;;;;;;1.50;0.40;;;14.30;99.90;;;;;;5034555;28;20051;-68
2022/08/31 05:09:11;;;;;;;1.60;0.60;;;14.20;99.90;;;;;;5034638;28;20146;-67
2022/08/31 05:11:36;;;;;;;4.55;0.40;;;14.30;99.90;;;;;;5034461;28;20051;-67
2022/08/31 05:14:04;;;;;;;1.00;0.60;;;14.30;99.90;;;;;;5034294;28;20120;-68
2022/08/31 05:16:30;;;;;;;1.00;0.50;;;14.30;99.90;;;;;;5033532;28;20088;-68
2022/08/31 05:18:57;;;;;;;2.22;0.55;;;14.30;99.90;;;;;;5034197;28;20045;-68
2022/08/31 05:21:29;;;;;;;1.80;0.52;;;14.30;99.90;;;;;;5034532;28;20080;-68
2022/08/31 05:23:57;;;;;;;1.20;0.47;;;14.30;99.90;;;;;;5018015;28;20041;-67
2022/08/31 05:26:25;;;;;;;2.75;0.40;;;14.30;99.90;;;;;;5034136;28;20080;-67
2022/08/31 05:28:51;;;;;;;2.10;0.60;;;14.30;99.90;;;;;;5034055;28;20038;-67
2022/08/31 05:31:17;;;;;;;0.77;0.40;;;14.30;99.90;;;;;;5034334;28;20088;-67
2022/08/31 05:33:43;;;;;;;1.40;0.50;;;14.30;99.90;;;;;;5033943;28;20474;-67
2022/08/31 05:36:10;;;;;;;2.40;0.40;;;14.30;99.90;;;;;;5033891;28;20402;-67
2022/08/31 05:38:37;;;;;;;1.95;0.38;;;14.40;99.90;;;;;;5033759;28;20077;-68
2022/08/31 05:41:04;;;;;;;0.70;0.40;;;14.40;99.90;;;;;;5033857;28;20489;-68
2022/08/31 05:43:30;;;;;;;2.45;0.63;;;14.40;99.90;;;;;;5034078;28;20049;-68
2022/08/31 05:45:56;;;;;;;5.40;0.50;;;14.40;99.90;;;;;;5033690;28;20056;-68
2022/08/31 05:48:22;;;;;;;2.85;0.60;;;14.50;99.90;;;;;;5033649;28;20045;-67
2022/08/31 05:50:47;;;;;;;4.80;0.60;;;14.50;99.90;;;;;;5033916;28;20041;-67
2022/08/31 05:53:14;;;;;;;2.60;0.80;;;14.50;99.90;;;;;;5033876;28;20045;-67
2022/08/31 05:55:39;;;;;;;2.30;0.45;;;14.50;99.90;;;;;;5034794;28;20486;-67
2022/08/31 05:58:05;;;;;;;2.88;0.50;;;14.60;99.90;;;;;;5033680;28;20037;-68
2022/08/31 06:00:31;;;;;;;3.38;0.65;;;14.60;99.90;;;;;;5017047;28;20040;-68
2022/08/31 06:02:57;;;;;;;0.85;0.40;;;14.70;99.90;;;;;;5033466;28;20045;-68
2022/08/31 06:05:23;;;;;;;1.73;0.60;;;14.70;99.90;;;;;;5033269;28;20152;-68
2022/08/31 06:07:49;;;;;;;1.23;0.40;;;14.80;99.90;;;;;;5033534;28;20101;-68
2022/08/31 06:10:16;;;;;;;3.13;0.60;;;14.80;99.90;;;;;;5033316;28;20498;-68
2022/08/31 06:12:42;;;;;;;1.10;0.47;;;14.90;99.90;;;;;;5033552;28;20176;-68
2022/08/31 06:15:09;;;;;;;1.67;0.52;;;14.90;99.90;;;;;;5033197;28;20046;-68
2022/08/31 06:17:36;;;;;;;1.25;0.52;;;15.00;99.90;;;;;;5033144;28;20124;-68
2022/08/31 06:20:04;;;;;;;1.33;0.38;;;15.00;99.90;;;;;;5033146;28;20053;-67
2022/08/31 06:22:29;;;;;;;3.13;0.80;;;15.00;99.90;;;;;;5033113;28;20087;-67
2022/08/31 06:24:55;;;;;;;3.03;0.63;;;15.10;99.90;;;;;;5033316;28;20406;-67
2022/08/31 06:27:21;;;;;;;2.65;0.50;;;15.10;99.90;;;;;;5032748;28;20041;-67
2022/08/31 06:29:48;;;;;;;2.47;0.50;;;15.20;99.90;;;;;;5032856;28;20049;-67
2022/08/31 06:32:14;;;;;;;3.00;0.50;;;15.30;99.90;;;;;;5032919;28;20041;-67
2022/08/31 06:34:41;;;;;;;2.33;0.50;;;15.30;99.90;;;;;;5033108;28;20095;-67
2022/08/31 06:37:09;;;;;;;1.42;0.70;;;15.40;99.90;;;;;;5032700;28;20052;-67
2022/08/31 06:39:36;;;;;;;1.55;0.60;;;15.40;99.90;;;;;;5032685;28;20539;-67
2022/08/31 06:42:02;;;;;;;2.75;0.80;;;15.50;99.90;;;;;;5016549;28;20053;-67
2022/08/31 06:44:28;;;;;;;2.85;0.50;;;15.60;99.90;;;;;;5032692;28;20053;-67
2022/08/31 06:46:55;;;;;;;1.00;0.60;;;15.60;99.90;;;;;;5033795;28;20512;-67
2022/08/31 06:49:21;;;;;;;2.75;0.88;;;15.70;99.90;;;;;;5016116;28;20117;-67
2022/08/31 06:51:48;;;;;;;1.55;0.50;;;15.80;99.90;;;;;;5032812;28;20045;-67
2022/08/31 06:54:14;;;;;;;2.17;0.63;;;15.80;99.90;;;;;;5032476;28;20033;-67
2022/08/31 06:56:40;;;;;;;1.83;0.70;;;15.90;99.90;;;;;;5032736;28;20038;-67
2022/08/31 06:59:07;;;;;;;5.38;0.57;;;16.00;99.90;;;;;;5032334;28;20484;-67
2022/08/31 07:01:35;;;;;;;1.88;0.52;;;16.10;99.90;;;;;;5032413;28;20045;-67
2022/08/31 07:04:09;;;;;;;2.25;0.80;;;16.10;99.90;;;;;;5032327;28;20073;-67
2022/08/31 07:06:37;;;;;;;1.25;0.52;;;16.10;99.90;;;;;;5032348;28;20041;-67
2022/08/31 07:09:06;;;;;;;3.10;0.70;;;16.20;99.90;;;;;;5032446;28;20077;-67
2022/08/31 07:11:42;;;;;;;1.95;0.68;;;16.20;99.90;;;;;;5032478;28;20064;-67
2022/08/31 07:14:11;;;;;;;2.42;0.80;;;16.30;99.90;;;;;;5032200;28;20045;-67
2022/08/31 07:16:37;;;;;;;4.38;0.65;;;16.30;99.90;;;;;;5032293;28;20053;-67
2022/08/31 07:19:05;;;;;;;4.15;0.60;;;16.40;99.90;;;;;;5032119;28;20045;-67
2022/08/31 07:21:39;;;;;;;1.80;0.63;;;16.50;99.90;;;;;;5032191;28;20060;-67
2022/08/31 07:24:06;;;;;;;4.72;0.93;;;16.60;99.90;;;;;;5032176;28;20049;-67
2022/08/31 07:26:35;;;;;;;4.28;0.88;;;16.70;99.90;;;;;;5031890;28;20387;-68
2022/08/31 07:29:03;;;;;;;2.70;0.63;;;16.70;99.90;;;;;;5031873;28;20073;-67
2022/08/31 07:31:51;;;;;;;2.53;0.60;;;16.80;99.90;;;;;;5031909;28;20548;-67
2022/08/31 07:34:19;;;;;;;1.30;0.70;;;16.90;99.90;;;;;;5031598;28;20095;-67
2022/08/31 07:42:20;;;;;;;3.72;0.63;;;17.20;99.90;;;;;;5031837;28;20050;-67
2022/08/31 07:44:51;;;;;;;2.05;0.50;;;17.30;99.90;;;;;;5031784;28;20049;-67
2022/08/31 07:47:18;;;;;;;2.25;0.47;;;17.40;99.90;;;;;;5031698;28;20502;-67
2022/08/31 07:49:47;;;;;;;2.30;0.45;;;17.40;99.90;;;;;;5031648;28;20628;-67
2022/08/31 07:52:15;;;;;;;1.08;0.60;;;17.60;99.90;;;;;;5015320;28;20398;-67
2022/08/31 07:54:43;;;;;;;3.35;0.55;;;17.70;99.90;;;;;;5031718;28;20037;-67
2022/08/31 07:57:09;;;;;;;2.85;0.80;;;17.80;99.90;;;;;;5015252;28;20092;-67
2022/08/31 07:59:38;;;;;;;3.75;0.98;;;17.90;99.90;;;;;;5031839;28;20387;-67
2022/08/31 08:02:04;;;;;;;1.85;0.40;;;18.00;99.80;;;;;;5031661;28;20506;-67
2022/08/31 08:04:31;;;;;;;1.50;0.40;;;18.10;98.90;;;;;;5031830;28;20045;-67
2022/08/31 08:06:59;;;;;;;2.50;0.52;;;18.20;98.40;;;;;;5031661;28;20049;-67
2022/08/31 08:09:27;;;;;;;2.38;0.60;;;18.40;97.60;;;;;;5031570;28;20077;-67
2022/08/31 08:11:56;;;;;;;5.82;0.60;;;18.50;96.90;;;;;;5031612;28;20046;-67
2022/08/31 08:14:24;;;;;;;2.10;0.50;;;18.60;96.70;;;;;;5015394;28;20432;-67
2022/08/31 08:16:50;;;;;;;2.60;0.68;;;18.70;96.30;;;;;;5031571;28;20049;-67
2022/08/31 08:19:15;;;;;;;2.28;0.50;;;18.90;95.80;;;;;;5031452;28;20037;-67
2022/08/31 08:21:42;;;;;;;2.10;0.47;;;19.00;95.50;;;;;;5031506;28;20110;-67
2022/08/31 08:24:09;;;;;;;1.65;0.50;;;19.10;94.80;;;;;;5015045;28;20049;-67
2022/08/31 08:26:36;;;;;;;2.22;0.45;;;19.30;94.00;;;;;;5031337;28;20433;-67
2022/08/31 08:29:04;;;;;;;1.95;0.40;;;19.40;93.80;;;;;;5031404;28;20049;-67
2022/08/31 08:31:30;;;;;;;1.20;0.40;;;19.60;93.60;;;;;;5031444;28;20072;-67
2022/08/31 08:33:56;;;;;;;2.13;0.50;;;19.80;92.50;;;;;;5031392;28;20121;-67
2022/08/31 08:36:22;;;;;;;1.25;0.50;;;19.90;91.40;;;;;;5031613;28;20052;-67
2022/08/31 08:38:52;;;;;;;4.63;0.68;;;20.00;90.60;;;;;;5031171;28;20096;-68
2022/08/31 08:41:24;;;;;;;2.65;0.45;;;20.10;90.70;;;;;;5031596;28;20045;-67
2022/08/31 08:43:52;;;;;;;1.73;0.40;;;20.20;90.00;;;;;;5031614;28;20045;-67
2022/08/31 08:46:46;;;;;;;2.55;0.50;;;20.40;88.40;;;;;;5032668;28;20148;-67
2022/08/31 08:49:32;;;;;;;0.77;0.30;;;20.50;86.20;;;;;;5022687;28;20046;-67
2022/08/31 08:52:02;;;;;;;1.02;0.47;;;20.60;85.30;;;;;;5034678;28;20037;-67
2022/08/31 08:54:37;;;;;;;1.70;0.47;;;20.80;83.80;;;;;;5035082;28;20060;-67
2022/08/31 08:57:17;;;;;;;1.73;0.40;;;21.00;83.30;;;;;;5034775;28;20049;-67
2022/08/31 08:59:45;;;;;;;1.38;0.63;;;21.10;81.20;;;;;;5034888;28;20383;-68
2022/08/31 09:02:21;;;;;;;4.18;0.30;;;21.30;81.80;;;;;;5034878;28;20045;-67
2022/08/31 09:04:58;;;;;;;1.10;0.40;;;21.50;79.80;;;;;;5034883;28;20449;-67
2022/08/31 09:07:53;;;;;;;0.98;0.30;;;21.70;77.50;;;;;;5034472;28;20050;-68
2022/08/31 09:10:29;;;;;;;3.25;0.45;;;21.80;74.20;;;;;;5034536;28;20506;-67
2022/08/31 09:13:07;;;;;;;2.65;0.28;;;21.90;72.70;;;;;;5034508;28;20112;-67
2022/08/31 09:15:47;;;;;;;2.38;0.45;;;21.90;71.90;;;;;;5034437;28;20041;-68
2022/08/31 09:18:41;;;;;;;0.93;0.50;;;22.00;70.80;;;;;;5034538;28;20052;-68
2022/08/31 09:21:20;;;;;;;2.50;0.45;;;22.30;69.50;;;;;;5034584;28;20087;-67
2022/08/31 09:24:14;;;;;;;0.98;0.40;;;22.50;66.80;;;;;;5034501;28;20124;-67
2022/08/31 09:27:16;;;;;;;1.98;0.40;;;22.60;66.70;;;;;;5032703;28;20053;-68
2022/08/31 09:29:43;;;;;;;2.22;0.43;;;22.70;66.80;;;;;;5034104;28;20044;-68
2022/08/31 09:32:15;;;;;;;4.47;0.47;;;22.80;65.60;;;;;;5017625;28;20049;-68
2022/08/31 09:34:41;;;;;;;4.95;0.20;;;23.10;64.60;;;;;;5034373;28;20431;-68
2022/08/31 09:37:23;;;;;;;0.82;0.30;;;23.30;63.90;;;;;;5017339;28;20046;-68
2022/08/31 09:39:51;;;;;;;1.40;0.28;;;23.50;62.70;;;;;;5034173;28;20045;-68
2022/08/31 09:42:27;;;;;;;1.35;0.40;;;23.60;62.20;;;;;;5017554;28;20052;-68
2022/08/31 09:44:54;;;;;;;1.17;0.22;;;23.60;62.00;;;;;;5034118;28;20124;-68
2022/08/31 09:47:54;;;;;;;1.70;0.50;;;23.70;61.50;;;;;;5033689;28;20121;-68
2022/08/31 09:50:29;;;;;;;3.28;0.50;;;23.90;60.50;;;;;;5017244;28;20486;-68
2022/08/31 09:56:12;;;;;;;4.72;0.50;;;24.10;58.40;;;;;;5033879;28;20486;-68
2022/08/31 09:58:40;;;;;;;6.25;0.40;;;24.30;58.90;;;;;;5033588;28;20045;-68
2022/08/31 10:01:12;;;;;;;2.13;0.30;;;24.30;57.70;;;;;;5033176;28;20575;-68
2022/08/31 10:03:44;;;;;;;3.67;0.40;;;24.20;56.90;;;;;;5033585;28;20041;-68
2022/08/31 10:06:40;;;;;;;1.20;0.52;;;24.50;57.10;;;;;;5033452;28;20060;-69
2022/08/31 10:09:13;;;;;;;3.55;0.50;;;24.70;56.20;;;;;;5033613;28;20045;-69
2022/08/31 10:11:42;;;;;;;3.33;0.30;;;24.70;54.70;;;;;;5033411;28;20041;-69
2022/08/31 10:14:23;;;;;;;1.02;0.40;;;24.90;55.00;;;;;;5033325;28;20041;-69
2022/08/31 10:16:59;;;;;;;5.28;0.43;;;25.20;54.20;;;;;;5033565;28;20099;-70
2022/08/31 10:19:43;;;;;;;1.70;0.40;;;25.30;53.70;;;;;;5033509;28;20490;-71
2022/08/31 10:22:24;;;;;;;2.33;0.40;;;25.50;54.10;;;;;;5033460;28;20049;-69
2022/08/31 10:25:30;;;;;;;3.97;0.70;;;25.60;53.30;;;;;;5033126;28;20483;-69
2022/08/31 10:28:05;;;;;;;2.55;0.38;;;25.60;52.50;;;;;;5032950;28;20042;-68
2022/08/31 10:30:41;;;;;;;4.53;0.40;;;25.60;52.80;;;;;;5033228;28;20044;-68
2022/08/31 10:33:16;;;;;;;2.55;0.30;;;25.60;51.80;;;;;;5033242;28;20103;-69
2022/08/31 10:35:59;;;;;;;1.63;0.20;;;25.60;52.00;;;;;;5032858;28;20383;-69
2022/08/31 10:38:37;;;;;;;1.40;0.40;;;25.80;51.60;;;;;;5032524;28;20037;-70
2022/08/31 10:41:29;;;;;;;2.83;0.40;;;26.10;51.90;;;;;;5016275;28;20053;-68
2022/08/31 10:44:01;;;;;;;2.03;0.40;;;26.20;51.70;;;;;;5032941;28;20077;-68
2022/08/31 10:46:29;;;;;;;4.55;0.30;;;26.40;51.80;;;;;;5032516;28;20519;-68
2022/08/31 10:48:57;;;;;;;1.35;0.20;;;26.50;50.20;;;;;;5032562;28;20167;-69
2022/08/31 10:51:55;;;;;;;2.22;0.40;;;26.50;49.70;;;;;;5032561;28;20375;-69
2022/08/31 10:54:27;;;;;;;5.82;0.60;;;26.50;48.90;;;;;;5033285;28;20441;-68
2022/08/31 10:57:04;;;;;;;2.85;0.28;;;26.60;49.20;;;;;;5032483;28;20135;-69
2022/08/31 11:00:00;;;;;;;0.73;0.30;;;26.60;49.80;;;;;;5032613;28;20064;-68
2022/08/31 11:02:34;;;;;;;5.05;0.60;;;26.60;49.70;;;;;;5032366;28;20410;-69
2022/08/31 11:05:28;;;;;;;3.50;0.63;;;26.60;50.00;;;;;;5032377;28;20124;-69
2022/08/31 11:08:00;;;;;;;1.60;0.30;;;26.80;50.00;;;;;;5032205;28;20045;-69
2022/08/31 11:10:45;;;;;;;3.25;0.40;;;27.10;49.10;;;;;;5032554;28;20042;-69
2022/08/31 11:13:45;;;;;;;3.92;0.30;;;27.10;47.80;;;;;;5031473;28;20041;-69
2022/08/31 11:16:31;;;;;;;0.90;0.35;;;27.20;47.70;;;;;;5032204;28;20047;-69
2022/08/31 11:19:25;;;;;;;3.55;0.40;;;27.20;47.70;;;;;;5032056;28;20548;-71
2022/08/31 11:22:28;;;;;;;2.22;0.47;;;27.10;47.00;;;;;;5032291;28;20045;-70
2022/08/31 11:25:07;;;;;;;;;;;27.10;48.20;;;;;;5016253;28;20561;-68
2022/08/31 11:27:38;;;;;;;2.25;0.50;;;27.30;48.60;;;;;;5031930;28;19921;-70
2022/08/31 11:30:10;;;;;;;3.20;0.38;;;27.30;47.50;;;;;;5032273;28;20072;-69
2022/08/31 11:32:50;;;;;;;2.03;0.47;;;27.50;47.10;;;;;;5032603;28;20041;-69
2022/08/31 11:36:09;;;;;;;1.30;0.40;;;27.60;46.80;;;;;;5032427;28;20185;-69
2022/08/31 11:38:46;;;;;;;2.70;0.40;;;27.60;47.60;;;;;;5031190;28;20052;-69
2022/08/31 11:41:47;;;;;;;1.27;0.40;;;27.60;46.00;;;;;;5031831;28;20080;-69
2022/08/31 11:44:28;;;;;;;2.38;0.50;;;27.60;45.30;;;;;;5032109;28;20056;-68
2022/08/31 11:47:28;;;;;;;3.03;0.40;;;27.70;45.10;;;;;;5031668;28;20060;-67
2022/08/31 11:50:04;;;;;;;2.47;0.45;;;27.70;44.90;;;;;;5032046;28;20045;-67
2022/08/31 11:52:37;;;;;;;3.00;0.40;;;27.90;46.00;;;;;;5032084;28;20064;-67
2022/08/31 11:55:23;;;;;;;1.50;0.50;;;28.00;45.40;;;;;;5031710;28;20056;-67
2022/08/31 11:58:08;;;;;;;1.15;0.30;;;27.90;44.90;;;;;;5031760;28;20513;-67
2022/08/31 12:00:57;;;;;;;3.00;0.35;;;28.10;45.40;;;;;;5032823;28;20064;-67
2022/08/31 12:03:44;;;;;;;2.58;0.40;;;28.40;44.30;;;;;;5031928;28;20053;-67
2022/08/31 12:06:32;;;;;;;1.33;0.35;;;28.70;43.60;;;;;;5015180;28;20046;-67
2022/08/31 12:09:10;;;;;;;2.28;0.32;;;28.90;43.20;;;;;;5031501;28;20042;-67
2022/08/31 12:11:39;;;;;;;1.15;0.25;;;28.90;43.00;;;;;;5031667;28;20077;-67
2022/08/31 12:14:37;;;;;;;3.17;0.32;;;28.80;42.70;;;;;;5031859;28;20041;-67
2022/08/31 12:17:19;;;;;;;2.58;0.38;;;28.80;43.10;;;;;;5022835;28;20053;-67
2022/08/31 12:20:03;;;;;;;2.15;0.40;;;28.70;42.70;;;;;;5031480;28;20045;-67
2022/08/31 12:25:55;;;;;;;3.20;0.38;;;29.00;43.10;;;;;;5034473;28;20049;-67
2022/08/31 12:28:48;;;;;;;1.17;0.22;;;29.20;42.60;;;;;;5035241;28;20421;-67
2022/08/31 12:31:17;;;;;;;2.88;0.30;;;29.30;42.30;;;;;;5035663;28;20487;-67
2022/08/31 12:33:54;;;;;;;1.35;0.50;;;29.50;42.40;;;;;;5035210;28;20120;-66
2022/08/31 12:36:25;;;;;;;1.90;0.30;;;29.50;42.20;;;;;;5035462;28;20057;-67
2022/08/31 12:39:12;;;;;;;2.08;0.25;;;29.60;41.70;;;;;;5018521;28;20041;-66
2022/08/31 12:41:50;;;;;;;3.65;0.47;;;29.60;41.20;;;;;;5035046;28;20498;-66
2022/08/31 12:44:34;;;;;;;3.60;0.50;;;29.50;40.50;;;;;;5035004;28;20049;-67
2022/08/31 12:47:22;;;;;;;2.33;0.40;;;29.50;40.60;;;;;;5035055;28;20045;-66
2022/08/31 12:50:17;;;;;;;3.35;0.40;;;29.60;40.40;;;;;;5034848;28;20046;-67
2022/08/31 12:53:01;;;;;;;1.65;0.35;;;29.50;40.70;;;;;;5025844;28;20050;-67
2022/08/31 12:55:48;;;;;;;1.42;0.40;;;29.50;40.80;;;;;;5034821;28;20047;-66
2022/08/31 12:58:49;;;;;;;4.25;0.40;;;29.60;41.60;;;;;;5034611;28;20037;-66
2022/08/31 13:01:20;;;;;;;1.90;0.23;;;29.70;40.90;;;;;;5034787;28;20045;-66
2022/08/31 13:03:52;;;;;;;1.98;0.55;;;29.70;39.90;;;;;;5034882;28;20145;-68
2022/08/31 13:06:30;;;;;;;1.37;0.40;;;29.70;39.70;;;;;;5034775;28;20046;-66
2022/08/31 13:08:58;;;;;;;1.25;0.40;;;29.70;39.30;;;;;;5034540;28;20045;-66
2022/08/31 13:11:29;;;;;;;1.55;0.30;;;29.70;39.80;;;;;;5034859;28;20042;-67
2022/08/31 13:14:21;;;;;;;3.30;0.40;;;29.70;40.20;;;;;;5034462;28;20060;-67
2022/08/31 13:16:53;;;;;;;2.88;0.82;;;29.80;40.30;;;;;;5034435;28;20052;-67
2022/08/31 13:19:31;;;;;;;2.75;0.40;;;30.00;40.20;;;;;;5034362;28;20503;-66
2022/08/31 13:22:05;;;;;;;2.85;0.30;;;30.00;39.10;;;;;;5034716;28;20045;-66
2022/08/31 13:24:40;;;;;;;2.35;0.40;;;30.00;40.00;;;;;;5017767;28;20041;-66
2022/08/31 13:27:18;;;;;;;0.98;0.30;;;29.90;39.10;;;;;;5034289;28;20494;-66